Time;durP1;ratioP1;P1;durP2;ratioP2;P2;SDS_P1;SDS_P2;PMS_P1;PMS_P2;Temp;Humidity;BMP_temperature;BMP_pressure;BME280_temperature;BME280_humidity;BME280_pressure;Samples;Min_cycle;Max_cycle;Signal;HPM_P1;HPM_P2
2021/12/20 00:00:15;;;;;;;5.07;3.10;;;7.60;99.90;;;;;;4984458;28;20197;-71
2021/12/20 00:02:44;;;;;;;4.27;2.80;;;7.60;99.90;;;;;;4991177;28;20217;-72
2021/12/20 00:05:12;;;;;;;4.53;2.97;;;7.60;99.90;;;;;;4989037;28;20204;-71
2021/12/20 00:07:39;;;;;;;5.03;2.90;;;7.70;99.90;;;;;;4992542;28;20207;-72
2021/12/20 00:10:06;;;;;;;4.80;3.10;;;7.80;99.90;;;;;;4992096;28;20222;-71
2021/12/20 00:12:33;;;;;;;5.13;3.20;;;7.80;99.90;;;;;;4987325;28;20258;-71
2021/12/20 00:15:00;;;;;;;4.20;3.33;;;7.70;99.90;;;;;;4992591;28;20195;-71
2021/12/20 00:17:26;;;;;;;5.07;3.30;;;7.60;99.90;;;;;;4983599;28;20621;-69
2021/12/20 00:19:53;;;;;;;6.63;3.77;;;7.60;99.90;;;;;;4985063;28;21229;-72
2021/12/20 00:22:20;;;;;;;4.87;3.10;;;7.50;99.90;;;;;;4991431;28;20215;-71
2021/12/20 00:24:46;;;;;;;5.67;3.70;;;7.60;99.90;;;;;;4990307;28;20228;-73
2021/12/20 00:27:18;;;;;;;6.03;3.00;;;7.60;99.90;;;;;;4992201;28;20270;-71
2021/12/20 00:29:47;;;;;;;5.47;3.20;;;7.70;99.90;;;;;;4987819;28;20632;-71
2021/12/20 00:32:14;;;;;;;7.83;3.80;;;7.70;99.90;;;;;;4987843;28;20672;-71
2021/12/20 00:34:41;;;;;;;5.07;3.10;;;7.80;99.90;;;;;;4987836;28;20223;-71
2021/12/20 00:42:42;;;;;;;6.93;3.60;;;7.80;99.90;;;;;;4990436;28;20215;-72
2021/12/20 00:45:10;;;;;;;5.20;3.47;;;7.70;99.90;;;;;;4989387;28;20317;-71
2021/12/20 00:47:38;;;;;;;7.30;3.83;;;7.70;99.90;;;;;;4985102;28;20262;-74
2021/12/20 00:50:07;;;;;;;6.60;3.57;;;7.70;99.90;;;;;;4989831;28;20220;-71
2021/12/20 00:52:34;;;;;;;4.90;3.37;;;7.70;99.90;;;;;;5005754;28;20697;-71
2021/12/20 00:55:01;;;;;;;6.43;3.43;;;7.60;99.90;;;;;;4987761;28;20254;-71
2021/12/20 00:57:28;;;;;;;5.93;3.70;;;7.70;99.90;;;;;;4990140;28;20194;-72
2021/12/20 00:59:54;;;;;;;6.27;3.87;;;7.60;99.90;;;;;;4988648;28;20218;-71
2021/12/20 01:02:21;;;;;;;6.20;3.63;;;7.60;99.90;;;;;;4990549;28;20670;-71
2021/12/20 01:04:48;;;;;;;6.87;3.63;;;7.60;99.90;;;;;;4992099;28;20241;-72
2021/12/20 01:07:15;;;;;;;6.37;3.70;;;7.50;99.90;;;;;;4990823;28;20213;-71
2021/12/20 01:09:41;;;;;;;6.07;3.67;;;7.50;99.90;;;;;;4990355;28;20227;-71
2021/12/20 01:12:15;;;;;;;8.20;3.60;;;7.60;99.90;;;;;;4988806;28;20206;-71
2021/12/20 01:14:43;;;;;;;6.33;3.40;;;7.60;99.90;;;;;;4991997;28;20220;-71
2021/12/20 01:17:09;;;;;;;6.77;3.93;;;7.60;99.90;;;;;;5004015;28;20196;-71
2021/12/20 01:19:37;;;;;;;4.93;3.30;;;7.60;99.90;;;;;;4990509;28;20237;-71
2021/12/20 01:22:05;;;;;;;5.53;3.30;;;7.60;99.90;;;;;;4985851;28;20204;-71
2021/12/20 01:24:33;;;;;;;7.00;3.97;;;7.60;99.90;;;;;;5006342;28;20252;-72
2021/12/20 01:27:00;;;;;;;7.17;4.30;;;7.60;99.90;;;;;;4987811;28;20208;-73
2021/12/20 01:29:26;;;;;;;9.10;3.90;;;7.60;99.90;;;;;;4990582;28;20294;-73
2021/12/20 01:31:53;;;;;;;6.67;3.80;;;7.60;99.90;;;;;;4989072;28;20200;-71
2021/12/20 01:34:20;;;;;;;5.57;3.57;;;7.60;99.90;;;;;;4989381;28;20253;-71
2021/12/20 01:36:46;;;;;;;7.83;3.77;;;7.60;99.90;;;;;;4989631;28;20214;-73
2021/12/20 01:39:13;;;;;;;7.73;3.80;;;7.60;99.90;;;;;;4990275;28;20707;-71
2021/12/20 01:41:42;;;;;;;6.40;3.60;;;7.70;99.90;;;;;;4988418;28;20196;-71
2021/12/20 01:44:09;;;;;;;5.87;3.60;;;7.60;99.90;;;;;;4987749;28;20223;-72
2021/12/20 01:46:36;;;;;;;4.83;3.40;;;7.60;99.90;;;;;;4990158;28;20197;-71
2021/12/20 01:49:07;;;;;;;6.87;3.70;;;7.60;99.90;;;;;;4981128;28;20192;-71
2021/12/20 01:54:04;;;;;;;7.23;4.03;;;7.80;99.90;;;;;;4989701;28;20623;-73
2021/12/20 01:56:33;;;;;;;6.50;3.80;;;7.70;99.90;;;;;;4990891;28;20202;-71
2021/12/20 01:59:05;;;;;;;6.70;4.17;;;7.70;99.90;;;;;;4987163;28;20219;-71
2021/12/20 02:01:32;;;;;;;5.30;3.33;;;7.60;99.90;;;;;;4986031;28;20291;-74
2021/12/20 02:04:03;;;;;;;6.47;3.90;;;7.60;99.90;;;;;;4990104;28;20219;-71
2021/12/20 02:06:38;;;;;;;6.87;4.00;;;7.60;99.90;;;;;;4990852;28;20287;-71
2021/12/20 02:09:13;;;;;;;6.50;4.03;;;7.80;99.90;;;;;;4987204;28;20250;-71
2021/12/20 02:11:42;;;;;;;6.67;3.70;;;7.80;99.90;;;;;;4984537;28;20486;-71
2021/12/20 02:14:10;;;;;;;5.83;3.50;;;7.80;99.90;;;;;;4985332;28;20278;-71
2021/12/20 02:16:41;;;;;;;5.53;3.53;;;7.70;99.90;;;;;;4990545;28;20202;-72
2021/12/20 02:19:11;;;;;;;5.87;3.57;;;7.60;99.90;;;;;;4978235;28;20189;-71
2021/12/20 02:21:39;;;;;;;7.00;3.73;;;7.60;99.90;;;;;;4990292;28;20211;-73
2021/12/20 02:24:06;;;;;;;5.50;3.60;;;7.60;99.90;;;;;;4988419;28;20221;-71
2021/12/20 02:26:33;;;;;;;6.40;3.77;;;7.60;99.90;;;;;;4987372;28;20219;-69
2021/12/20 02:29:05;;;;;;;8.80;4.27;;;7.60;99.90;;;;;;4977367;28;20202;-73
2021/12/20 02:40:06;;;;;;;5.93;3.50;;;7.50;99.90;;;;;;4945654;29;20211;-71
2021/12/20 02:42:37;;;;;;;6.20;3.73;;;7.50;99.90;;;;;;4978453;28;20237;-74
2021/12/20 02:45:14;;;;;;;5.93;3.97;;;7.50;99.90;;;;;;4988466;28;20207;-71
2021/12/20 02:47:43;;;;;;;7.27;3.63;;;7.40;99.90;;;;;;4986714;28;20215;-71
2021/12/20 02:50:12;;;;;;;6.00;3.50;;;7.50;99.90;;;;;;4987535;28;20228;-71
2021/12/20 02:52:40;;;;;;;4.67;2.90;;;7.60;99.90;;;;;;4986140;28;20206;-71
2021/12/20 02:55:08;;;;;;;4.67;3.13;;;7.60;99.90;;;;;;4987977;28;20199;-73
2021/12/20 02:57:36;;;;;;;7.23;3.40;;;7.50;99.90;;;;;;4988503;28;20195;-71
2021/12/20 03:00:09;;;;;;;6.07;3.37;;;7.50;99.90;;;;;;4979260;28;20199;-71
2021/12/20 03:02:36;;;;;;;6.60;3.70;;;7.50;99.90;;;;;;4987805;28;20211;-72
2021/12/20 03:05:04;;;;;;;5.20;3.47;;;7.50;99.90;;;;;;4998242;28;20201;-70
2021/12/20 03:07:39;;;;;;;7.43;3.57;;;7.50;99.90;;;;;;4980801;28;20204;-70
2021/12/20 03:10:07;;;;;;;7.10;3.60;;;7.50;99.90;;;;;;4985501;28;20714;-72
2021/12/20 03:12:34;;;;;;;5.40;3.20;;;7.40;99.90;;;;;;4987366;28;20223;-71
2021/12/20 03:15:11;;;;;;;11.43;4.20;;;7.30;99.90;;;;;;4989275;28;20204;-71
2021/12/20 03:17:38;;;;;;;4.77;3.33;;;7.40;99.90;;;;;;4984789;28;20216;-72
2021/12/20 03:20:06;;;;;;;6.10;3.50;;;7.40;99.90;;;;;;4989824;28;20409;-71
2021/12/20 03:22:33;;;;;;;5.33;3.10;;;7.50;99.90;;;;;;4986127;28;20214;-69
2021/12/20 03:24:59;;;;;;;7.13;3.30;;;7.50;99.90;;;;;;4988100;28;20233;-74
2021/12/20 03:27:26;;;;;;;5.83;3.10;;;7.50;99.90;;;;;;4985732;28;20211;-73
2021/12/20 03:29:53;;;;;;;5.10;3.23;;;7.50;99.90;;;;;;4989145;28;20212;-71
2021/12/20 03:32:20;;;;;;;7.07;4.00;;;7.50;99.90;;;;;;4988053;28;20197;-73
2021/12/20 03:34:46;;;;;;;6.73;2.93;;;7.40;99.90;;;;;;4989330;28;20227;-71
2021/12/20 03:37:13;;;;;;;6.13;3.10;;;7.40;99.90;;;;;;4990701;28;20202;-71
2021/12/20 03:39:40;;;;;;;6.53;3.10;;;7.50;99.90;;;;;;4994081;28;20203;-71
2021/12/20 03:42:06;;;;;;;6.63;3.10;;;7.50;99.90;;;;;;4990585;28;20194;-75
2021/12/20 03:44:37;;;;;;;6.63;2.97;;;7.50;99.90;;;;;;4993327;28;20220;-73
2021/12/20 03:47:04;;;;;;;7.07;2.97;;;7.50;99.90;;;;;;4988491;28;20201;-70
2021/12/20 03:49:30;;;;;;;6.27;3.10;;;7.50;99.90;;;;;;4992136;28;20203;-73
2021/12/20 03:51:57;;;;;;;6.60;2.87;;;7.30;99.90;;;;;;4991514;28;20342;-71
2021/12/20 03:54:24;;;;;;;7.03;3.43;;;7.40;99.90;;;;;;4990926;28;20305;-71
2021/12/20 03:56:51;;;;;;;9.67;3.50;;;7.40;99.90;;;;;;4991558;28;20225;-73
2021/12/20 03:59:17;;;;;;;5.90;2.80;;;7.30;99.90;;;;;;4987492;28;20197;-72
2021/12/20 04:01:44;;;;;;;5.93;2.50;;;7.30;99.90;;;;;;4992300;28;20207;-72
2021/12/20 04:04:11;;;;;;;7.00;2.50;;;7.50;99.90;;;;;;4991937;28;20218;-71
2021/12/20 04:06:37;;;;;;;9.83;2.50;;;7.60;99.90;;;;;;4986387;28;20204;-75
2021/12/20 04:09:05;;;;;;;4.17;2.17;;;7.60;99.90;;;;;;4989493;28;20202;-72
2021/12/20 04:11:32;;;;;;;6.20;2.53;;;7.50;99.90;;;;;;4988383;28;20221;-70
2021/12/20 04:13:59;;;;;;;4.90;2.40;;;7.50;99.90;;;;;;4990457;28;20216;-72
2021/12/20 04:16:26;;;;;;;7.80;2.30;;;7.60;99.90;;;;;;4994348;28;20743;-72
2021/12/20 04:18:52;;;;;;;5.63;2.33;;;7.40;99.90;;;;;;4991247;28;20202;-72
2021/12/20 04:21:19;;;;;;;4.97;2.20;;;7.40;99.90;;;;;;4992948;28;20393;-71
2021/12/20 04:23:46;;;;;;;4.40;2.00;;;7.40;99.90;;;;;;4989717;28;20280;-71
2021/12/20 04:26:12;;;;;;;4.63;1.90;;;7.50;99.90;;;;;;4991349;28;20260;-71
2021/12/20 04:28:42;;;;;;;7.13;2.10;;;7.60;99.90;;;;;;4990712;28;20214;-72
2021/12/20 04:31:09;;;;;;;8.10;2.20;;;7.50;99.90;;;;;;4985296;28;20214;-73
2021/12/20 04:33:35;;;;;;;6.67;2.40;;;7.40;99.90;;;;;;4991195;28;20233;-71
2021/12/20 04:36:02;;;;;;;3.87;1.90;;;7.40;99.90;;;;;;4991892;28;20271;-72
2021/12/20 04:38:31;;;;;;;4.67;1.80;;;7.40;99.90;;;;;;4990486;28;20197;-71
2021/12/20 04:40:58;;;;;;;6.50;1.87;;;7.50;99.90;;;;;;4992299;28;20238;-71
2021/12/20 04:43:25;;;;;;;8.03;1.77;;;7.50;99.90;;;;;;4987907;28;20253;-72
2021/12/20 04:45:51;;;;;;;7.30;1.70;;;7.50;99.90;;;;;;4988837;28;20198;-68
2021/12/20 04:48:18;;;;;;;5.03;1.70;;;7.50;99.90;;;;;;4989393;28;20238;-71
2021/12/20 04:50:45;;;;;;;7.57;1.93;;;7.30;99.90;;;;;;4993444;28;20232;-72
2021/12/20 04:53:12;;;;;;;5.70;1.87;;;7.40;99.90;;;;;;4987206;28;20225;-71
2021/12/20 04:55:38;;;;;;;4.10;1.73;;;7.40;99.90;;;;;;4989591;28;20251;-71
2021/12/20 04:58:06;;;;;;;4.73;1.97;;;7.40;99.90;;;;;;4988410;28;20207;-71
2021/12/20 05:00:36;;;;;;;5.60;2.33;;;7.30;99.90;;;;;;4987819;28;20199;-73
2021/12/20 05:03:04;;;;;;;4.00;1.70;;;7.20;99.90;;;;;;4989311;28;20721;-73
2021/12/20 05:05:32;;;;;;;7.77;2.00;;;7.30;99.90;;;;;;4990432;28;20639;-69
2021/12/20 05:08:00;;;;;;;5.97;1.70;;;7.20;99.90;;;;;;4990350;28;20201;-72
2021/12/20 05:10:32;;;;;;;4.80;1.97;;;7.20;99.90;;;;;;4986657;28;20230;-71
2021/12/20 05:13:05;;;;;;;3.80;1.90;;;7.20;99.90;;;;;;4990456;28;20216;-72
2021/12/20 05:15:33;;;;;;;5.97;2.27;;;7.30;99.90;;;;;;4988239;28;20612;-70
2021/12/20 05:17:59;;;;;;;6.27;2.10;;;7.30;99.90;;;;;;4989621;28;20663;-72
2021/12/20 05:20:27;;;;;;;4.97;2.00;;;7.30;99.90;;;;;;4989793;28;20217;-72
2021/12/20 05:22:55;;;;;;;6.47;2.60;;;7.30;99.90;;;;;;4989816;28;20197;-72
2021/12/20 05:25:23;;;;;;;6.13;2.00;;;7.30;99.90;;;;;;4988974;28;20206;-71
2021/12/20 05:27:49;;;;;;;5.77;2.27;;;7.40;99.90;;;;;;4985235;28;20209;-72
2021/12/20 05:30:17;;;;;;;12.27;2.23;;;7.30;99.90;;;;;;4989057;28;20197;-74
2021/12/20 05:32:44;;;;;;;7.47;2.00;;;7.30;99.90;;;;;;4989957;28;20201;-72
2021/12/20 05:35:12;;;;;;;7.23;2.03;;;7.30;99.90;;;;;;4988614;28;20660;-71
2021/12/20 05:37:39;;;;;;;6.17;2.13;;;7.30;99.90;;;;;;4989829;28;20208;-69
2021/12/20 05:40:09;;;;;;;6.07;2.10;;;7.30;99.90;;;;;;4991126;28;20197;-71
2021/12/20 05:42:35;;;;;;;8.47;2.33;;;7.30;99.90;;;;;;4990614;28;20275;-70
2021/12/20 05:45:03;;;;;;;4.73;2.00;;;7.30;99.90;;;;;;4990109;28;20720;-71
2021/12/20 05:47:30;;;;;;;7.53;2.30;;;7.30;99.90;;;;;;4988772;28;20201;-72
2021/12/20 05:49:57;;;;;;;5.07;2.23;;;7.40;99.90;;;;;;4989090;28;20209;-71
2021/12/20 05:52:24;;;;;;;8.13;2.40;;;7.40;99.90;;;;;;4988825;28;20230;-70
2021/12/20 05:54:50;;;;;;;8.60;2.30;;;7.30;99.90;;;;;;4989820;28;20721;-70
2021/12/20 05:57:17;;;;;;;11.07;2.60;;;7.20;99.90;;;;;;4988703;28;20201;-71
2021/12/20 05:59:44;;;;;;;6.30;2.20;;;7.00;99.90;;;;;;4987747;28;20223;-71
2021/12/20 06:02:10;;;;;;;8.17;2.50;;;7.00;99.90;;;;;;4988362;28;20617;-70
2021/12/20 06:04:37;;;;;;;8.60;2.50;;;6.90;99.90;;;;;;4990829;28;20291;-70
2021/12/20 06:07:04;;;;;;;6.20;2.70;;;6.80;99.90;;;;;;4983076;28;20210;-70
2021/12/20 06:09:31;;;;;;;7.10;2.70;;;6.80;99.90;;;;;;4990749;28;20216;-69
2021/12/20 06:11:59;;;;;;;10.07;2.67;;;6.70;99.90;;;;;;4986372;28;20282;-73
2021/12/20 06:14:29;;;;;;;8.47;2.40;;;6.60;99.90;;;;;;4990401;28;20217;-72
2021/12/20 06:16:57;;;;;;;8.47;2.67;;;6.60;99.90;;;;;;4987685;28;20656;-70
2021/12/20 06:19:25;;;;;;;10.83;2.60;;;6.50;99.90;;;;;;4987218;28;20688;-68
2021/12/20 06:21:53;;;;;;;7.17;2.47;;;6.40;99.90;;;;;;4982955;28;20200;-68
2021/12/20 06:24:19;;;;;;;8.07;2.57;;;6.40;99.90;;;;;;4986522;28;20356;-68
2021/12/20 06:26:46;;;;;;;9.40;2.63;;;6.40;99.90;;;;;;4990508;28;20212;-68
2021/12/20 06:29:13;;;;;;;7.77;2.57;;;6.40;99.90;;;;;;4990880;28;20201;-69
2021/12/20 06:31:40;;;;;;;8.13;2.50;;;6.30;99.90;;;;;;4986482;28;20267;-70
2021/12/20 06:34:07;;;;;;;9.33;2.67;;;6.30;99.90;;;;;;4989167;28;20635;-70
2021/12/20 06:36:33;;;;;;;8.87;2.67;;;6.30;99.90;;;;;;4987616;28;20613;-70
2021/12/20 06:39:01;;;;;;;7.53;2.57;;;6.40;99.90;;;;;;4989429;28;20197;-72
2021/12/20 06:41:28;;;;;;;6.27;2.37;;;6.30;99.90;;;;;;4985619;28;20681;-70
2021/12/20 06:43:55;;;;;;;9.83;2.83;;;6.30;99.90;;;;;;4985362;28;20225;-71
2021/12/20 06:46:22;;;;;;;6.17;2.60;;;6.30;99.90;;;;;;4987570;28;20665;-70
2021/12/20 06:48:50;;;;;;;10.60;3.10;;;6.30;99.90;;;;;;4986018;28;20438;-69
2021/12/20 06:51:17;;;;;;;5.97;2.63;;;6.30;99.90;;;;;;4988296;28;20271;-72
2021/12/20 06:53:43;;;;;;;5.07;2.30;;;6.30;99.90;;;;;;4984072;28;20231;-70
2021/12/20 06:56:12;;;;;;;10.20;3.47;;;6.30;99.90;;;;;;4985604;28;20197;-69
2021/12/20 06:58:39;;;;;;;7.23;3.00;;;6.20;99.90;;;;;;4986074;28;20197;-72
2021/12/20 07:01:06;;;;;;;9.10;3.40;;;6.10;99.90;;;;;;4990157;28;20240;-69
2021/12/20 07:03:33;;;;;;;8.23;3.13;;;6.00;99.90;;;;;;4969608;28;20229;-70
2021/12/20 07:06:00;;;;;;;13.13;3.07;;;6.00;99.90;;;;;;4980229;28;20193;-70
2021/12/20 07:08:27;;;;;;;11.50;3.07;;;6.00;99.90;;;;;;4981332;28;20260;-73
2021/12/20 07:10:53;;;;;;;10.20;2.73;;;5.90;99.90;;;;;;4982590;28;20210;-70
2021/12/20 07:13:21;;;;;;;4.53;2.70;;;5.90;99.90;;;;;;4985563;28;20217;-72
2021/12/20 07:15:48;;;;;;;8.27;3.27;;;5.80;99.90;;;;;;4983894;28;20201;-73
2021/12/20 07:18:15;;;;;;;8.93;2.57;;;5.70;99.90;;;;;;4984995;28;20219;-70
2021/12/20 07:20:42;;;;;;;12.23;3.23;;;5.60;99.90;;;;;;4986197;28;20271;-70
2021/12/20 07:23:09;;;;;;;9.50;2.87;;;5.50;99.90;;;;;;4985276;28;20228;-73
2021/12/20 07:25:36;;;;;;;12.43;2.93;;;5.40;99.90;;;;;;4984217;28;20204;-71
2021/12/20 07:28:03;;;;;;;10.53;3.00;;;5.40;99.90;;;;;;4984189;28;20197;-73
2021/12/20 07:30:30;;;;;;;6.73;3.37;;;5.30;99.90;;;;;;4985830;28;20195;-76
2021/12/20 07:32:57;;;;;;;5.40;3.00;;;5.20;99.90;;;;;;4983579;28;20273;-72
2021/12/20 07:35:23;;;;;;;10.90;3.20;;;5.10;99.90;;;;;;4981116;28;20197;-75
2021/12/20 07:37:53;;;;;;;16.97;3.03;;;5.10;99.90;;;;;;4983992;28;20253;-71
2021/12/20 07:40:20;;;;;;;12.33;3.43;;;5.00;99.90;;;;;;4981736;28;20201;-73
2021/12/20 07:42:47;;;;;;;14.77;3.80;;;5.00;99.90;;;;;;4980421;28;20197;-71
2021/12/20 07:45:14;;;;;;;10.67;3.47;;;5.20;99.90;;;;;;4983207;28;20209;-72
2021/12/20 07:47:50;;;;;;;10.50;3.53;;;5.10;99.90;;;;;;4984059;28;20657;-71
2021/12/20 07:50:19;;;;;;;11.57;3.73;;;5.10;99.90;;;;;;4980898;28;20211;-71
2021/12/20 07:52:46;;;;;;;11.47;3.37;;;5.00;99.90;;;;;;4983322;28;20224;-69
2021/12/20 07:55:13;;;;;;;10.47;3.27;;;4.90;99.90;;;;;;4999363;28;20673;-69
2021/12/20 07:57:40;;;;;;;12.33;4.10;;;5.10;99.90;;;;;;4982181;28;21064;-69
2021/12/20 08:00:08;;;;;;;13.77;3.37;;;5.00;99.90;;;;;;4979335;28;20199;-68
2021/12/20 08:02:36;;;;;;;6.30;2.73;;;4.90;99.90;;;;;;4981286;28;20212;-71
2021/12/20 08:05:03;;;;;;;11.53;3.67;;;4.80;99.90;;;;;;4981884;28;20289;-72
2021/12/20 08:07:30;;;;;;;12.30;3.20;;;4.70;99.90;;;;;;4981633;28;20275;-69
2021/12/20 08:09:56;;;;;;;9.00;3.20;;;4.70;99.90;;;;;;4984197;28;20258;-69
2021/12/20 08:12:23;;;;;;;11.13;3.37;;;4.80;99.90;;;;;;4982328;28;20271;-69
2021/12/20 08:14:50;;;;;;;9.03;2.93;;;4.80;99.90;;;;;;4984196;28;20225;-68
2021/12/20 08:17:16;;;;;;;9.90;2.87;;;4.70;99.90;;;;;;4984331;28;20211;-70
2021/12/20 08:19:43;;;;;;;10.63;3.10;;;4.80;99.90;;;;;;4984947;28;20681;-72
2021/12/20 08:22:10;;;;;;;12.43;2.80;;;4.90;99.90;;;;;;4983133;28;20569;-69
2021/12/20 08:24:37;;;;;;;13.93;3.20;;;5.00;99.90;;;;;;4984219;28;20222;-71
2021/12/20 08:27:03;;;;;;;7.77;2.63;;;4.90;99.90;;;;;;4986482;28;20213;-71
2021/12/20 08:29:30;;;;;;;7.47;2.27;;;4.90;99.90;;;;;;4983396;28;21323;-66
2021/12/20 08:32:01;;;;;;;10.10;2.70;;;4.90;99.90;;;;;;4985321;28;20705;-74
2021/12/20 08:34:30;;;;;;;7.00;2.57;;;5.00;99.90;;;;;;4984458;28;20221;-70
2021/12/20 08:36:59;;;;;;;9.70;2.90;;;4.90;99.90;;;;;;4985946;28;20655;-73
2021/12/20 08:39:25;;;;;;;7.20;2.80;;;4.90;99.90;;;;;;4986532;28;20204;-71
2021/12/20 08:41:52;;;;;;;10.40;2.70;;;4.90;99.90;;;;;;4988230;28;20310;-71
2021/12/20 08:44:19;;;;;;;13.47;3.23;;;4.90;99.90;;;;;;4984244;28;20221;-70
2021/12/20 08:46:46;;;;;;;16.13;3.13;;;5.00;99.90;;;;;;5001688;28;20907;-73
2021/12/20 08:49:12;;;;;;;11.80;3.00;;;5.20;99.90;;;;;;4986800;28;20213;-73
2021/12/20 08:51:39;;;;;;;11.47;2.60;;;5.10;99.90;;;;;;4984921;28;20236;-68
2021/12/20 08:54:06;;;;;;;9.67;2.53;;;5.10;99.90;;;;;;4985361;28;20246;-69
2021/12/20 08:56:33;;;;;;;12.87;2.70;;;5.30;99.90;;;;;;4986509;28;20205;-71
2021/12/20 08:59:00;;;;;;;10.20;2.70;;;5.30;99.90;;;;;;4985422;28;20189;-69
2021/12/20 09:01:27;;;;;;;6.40;2.17;;;5.30;99.90;;;;;;4981587;28;20582;-72
2021/12/20 09:03:53;;;;;;;13.77;2.70;;;5.30;99.90;;;;;;4981127;28;20223;-68
2021/12/20 09:06:24;;;;;;;10.97;3.07;;;5.30;99.90;;;;;;4984984;28;20846;-70
2021/12/20 09:08:53;;;;;;;11.70;2.63;;;5.30;99.90;;;;;;4986606;28;20735;-65
2021/12/20 09:11:22;;;;;;;9.57;2.40;;;5.30;99.90;;;;;;4987633;28;20231;-68
2021/12/20 09:13:57;;;;;;;11.43;2.43;;;5.40;99.90;;;;;;4984346;28;20257;-68
2021/12/20 09:16:24;;;;;;;12.57;2.50;;;5.40;99.90;;;;;;4986641;28;20254;-68
2021/12/20 09:18:51;;;;;;;9.13;3.17;;;5.40;99.90;;;;;;4984507;28;20205;-69
2021/12/20 09:21:18;;;;;;;7.80;2.73;;;5.50;99.90;;;;;;4986968;28;20194;-70
2021/12/20 09:23:45;;;;;;;12.23;3.07;;;5.50;99.90;;;;;;4984971;28;20723;-71
2021/12/20 09:26:18;;;;;;;11.07;2.90;;;5.60;99.90;;;;;;4985412;28;20219;-69
2021/12/20 09:28:44;;;;;;;10.67;2.80;;;5.70;99.90;;;;;;4980656;28;20197;-74
2021/12/20 09:31:11;;;;;;;14.20;2.80;;;5.80;99.90;;;;;;4984104;28;21461;-73
2021/12/20 09:33:38;;;;;;;8.23;2.20;;;5.90;99.90;;;;;;4984800;28;20229;-71
2021/12/20 09:36:06;;;;;;;7.20;2.23;;;5.90;99.90;;;;;;4982535;28;20716;-71
2021/12/20 09:38:33;;;;;;;8.00;2.13;;;5.90;99.90;;;;;;4986241;28;20204;-73
2021/12/20 09:43:36;;;;;;;9.03;1.97;;;6.00;99.90;;;;;;4986034;28;20220;-72
2021/12/20 09:46:03;;;;;;;6.07;1.83;;;6.10;99.90;;;;;;4985998;28;20212;-70
2021/12/20 09:48:30;;;;;;;4.80;1.93;;;6.10;99.90;;;;;;4985444;28;20204;-72
2021/12/20 09:50:57;;;;;;;7.10;2.20;;;6.10;99.90;;;;;;4985214;28;20210;-70
2021/12/20 09:53:24;;;;;;;5.40;1.73;;;6.10;99.90;;;;;;4985032;28;20279;-71
2021/12/20 09:55:51;;;;;;;5.53;1.80;;;6.10;99.90;;;;;;4984848;28;20201;-69
2021/12/20 09:58:25;;;;;;;5.07;1.40;;;6.20;99.90;;;;;;4984195;28;20286;-71
2021/12/20 10:00:53;;;;;;;5.23;1.67;;;6.20;99.90;;;;;;4984969;28;20532;-71
2021/12/20 10:03:21;;;;;;;7.03;1.70;;;6.20;99.90;;;;;;4985083;28;20235;-70
2021/12/20 10:05:48;;;;;;;6.13;1.90;;;6.20;99.90;;;;;;4984546;28;20271;-74
2021/12/20 10:08:20;;;;;;;11.07;1.83;;;6.20;99.90;;;;;;4985307;28;20287;-72
2021/12/20 10:10:49;;;;;;;4.90;1.50;;;6.30;99.90;;;;;;4986545;28;20271;-74
2021/12/20 10:13:31;;;;;;;7.63;2.00;;;6.30;99.90;;;;;;4985378;28;20224;-72
2021/12/20 10:15:59;;;;;;;6.73;1.77;;;6.30;99.90;;;;;;4983169;28;20199;-72
2021/12/20 10:18:28;;;;;;;6.80;1.80;;;6.30;99.90;;;;;;4985134;28;20232;-73
2021/12/20 10:20:58;;;;;;;5.80;1.53;;;6.40;99.90;;;;;;4985306;28;20312;-70
2021/12/20 10:23:27;;;;;;;8.93;1.83;;;6.50;99.90;;;;;;4983639;28;20255;-73
2021/12/20 10:26:00;;;;;;;4.43;1.10;;;6.50;99.90;;;;;;4983906;28;20224;-74
2021/12/20 10:28:36;;;;;;;7.60;1.37;;;6.60;99.90;;;;;;4981253;28;20204;-72
2021/12/20 10:31:11;;;;;;;8.87;1.53;;;6.50;99.90;;;;;;4985393;28;20219;-71
2021/12/20 10:33:39;;;;;;;4.20;1.10;;;6.60;99.90;;;;;;4983187;28;20232;-74
2021/12/20 10:36:12;;;;;;;5.47;1.30;;;6.70;99.90;;;;;;4985363;28;20731;-69
2021/12/20 10:38:42;;;;;;;4.03;1.30;;;6.70;99.90;;;;;;4984987;28;20201;-72
2021/12/20 10:41:12;;;;;;;5.50;1.10;;;6.70;99.90;;;;;;4982788;28;20691;-71
2021/12/20 10:43:48;;;;;;;3.17;1.20;;;6.80;99.90;;;;;;4997907;28;20217;-71
2021/12/20 10:46:17;;;;;;;3.80;1.20;;;6.80;99.90;;;;;;4984611;28;20209;-69
2021/12/20 10:48:47;;;;;;;3.77;1.20;;;6.90;99.90;;;;;;4983084;28;20247;-69
2021/12/20 10:51:23;;;;;;;4.80;1.30;;;6.80;99.90;;;;;;4985232;28;20204;-72
2021/12/20 10:54:02;;;;;;;4.57;1.03;;;6.80;99.90;;;;;;4984453;28;20225;-71
2021/12/20 10:56:34;;;;;;;4.43;1.60;;;6.90;99.90;;;;;;4984118;28;20194;-71
2021/12/20 10:59:10;;;;;;;4.77;1.20;;;6.90;99.90;;;;;;4984139;28;20653;-72
2021/12/20 11:04:31;;;;;;;4.07;1.20;;;7.00;99.90;;;;;;4984205;28;20256;-69
2021/12/20 11:09:36;;;;;;;5.37;1.30;;;7.10;99.90;;;;;;4983717;28;20550;-68
2021/12/20 11:12:08;;;;;;;4.97;1.07;;;7.10;99.90;;;;;;4982796;28;20232;-71
2021/12/20 11:14:41;;;;;;;6.80;1.30;;;7.00;99.90;;;;;;4981794;28;20229;-73
2021/12/20 11:17:09;;;;;;;4.00;1.33;;;7.10;99.90;;;;;;4980948;28;20593;-70
2021/12/20 11:19:41;;;;;;;5.47;1.10;;;7.10;99.90;;;;;;4984588;28;20703;-68
2021/12/20 11:22:21;;;;;;;5.63;1.30;;;7.10;99.90;;;;;;4982492;28;20658;-72
2021/12/20 11:25:03;;;;;;;3.30;0.83;;;7.20;99.90;;;;;;4984316;28;20247;-71
2021/12/20 11:27:33;;;;;;;5.73;1.50;;;7.20;99.90;;;;;;4984723;28;20604;-72
2021/12/20 11:30:09;;;;;;;1.40;1.10;;;7.30;99.90;;;;;;4981949;28;20202;-71
2021/12/20 11:32:37;;;;;;;4.07;1.20;;;7.30;99.90;;;;;;4983472;28;20225;-74
2021/12/20 11:35:05;;;;;;;4.60;0.90;;;7.30;99.90;;;;;;4983461;28;20615;-78
2021/12/20 11:37:32;;;;;;;3.20;1.03;;;7.30;99.90;;;;;;4985700;28;20669;-75
2021/12/20 11:40:02;;;;;;;3.77;0.97;;;7.20;99.90;;;;;;4984992;28;20248;-73
2021/12/20 11:42:29;;;;;;;4.13;0.93;;;7.30;99.90;;;;;;4981181;28;20235;-79
2021/12/20 11:45:00;;;;;;;6.50;1.20;;;7.40;99.90;;;;;;4984028;28;20697;-70
2021/12/20 11:47:35;;;;;;;2.40;1.13;;;7.40;99.90;;;;;;4983750;28;20202;-71
2021/12/20 11:50:07;;;;;;;6.83;1.30;;;7.50;99.90;;;;;;4981649;28;20967;-71
2021/12/20 11:52:41;;;;;;;4.87;1.23;;;7.40;99.90;;;;;;4983817;28;20637;-67
2021/12/20 11:55:35;;;;;;;3.97;1.23;;;7.50;99.90;;;;;;4984404;28;20211;-70
2021/12/20 11:58:05;;;;;;;7.77;2.77;;;7.50;99.90;;;;;;4995793;28;20201;-68
2021/12/20 12:00:38;;;;;;;11.97;3.20;;;7.50;99.90;;;;;;4987788;28;20354;-72
2021/12/20 12:03:18;;;;;;;10.23;3.13;;;7.50;99.90;;;;;;4986534;28;20231;-72
2021/12/20 12:05:50;;;;;;;9.43;1.70;;;7.50;99.90;;;;;;4988564;28;20218;-69
2021/12/20 12:08:21;;;;;;;3.20;1.17;;;7.40;99.90;;;;;;4988511;28;20205;-69
2021/12/20 12:10:49;;;;;;;3.03;1.03;;;7.40;99.90;;;;;;4988121;28;20205;-70
2021/12/20 12:13:17;;;;;;;3.90;1.20;;;7.40;99.90;;;;;;4999606;28;20303;-68
2021/12/20 12:16:02;;;;;;;2.03;1.00;;;7.50;99.90;;;;;;4987921;28;20201;-71
2021/12/20 12:18:44;;;;;;;1.70;0.80;;;7.50;99.90;;;;;;4999323;28;20791;-70
2021/12/20 12:21:39;;;;;;;1.73;0.87;;;7.50;99.90;;;;;;4988379;28;20195;-74
2021/12/20 12:24:47;;;;;;;1.40;0.80;;;7.40;99.90;;;;;;4986287;28;20286;-73
2021/12/20 12:27:28;;;;;;;4.00;1.03;;;7.30;99.90;;;;;;4985022;28;20224;-72
2021/12/20 12:30:13;;;;;;;1.63;0.70;;;7.30;99.90;;;;;;4988605;28;20197;-70
2021/12/20 12:32:52;;;;;;;1.83;0.80;;;7.40;99.90;;;;;;5003346;28;20235;-72
2021/12/20 12:35:37;;;;;;;2.03;0.80;;;7.40;99.90;;;;;;4987655;28;20276;-73
2021/12/20 12:38:26;;;;;;;3.80;1.27;;;7.50;99.90;;;;;;5001745;28;20688;-70
2021/12/20 12:41:05;;;;;;;6.43;1.40;;;7.50;99.90;;;;;;4985130;28;20208;-72
2021/12/20 12:43:50;;;;;;;4.03;1.20;;;7.60;99.90;;;;;;4985046;28;20250;-70
2021/12/20 12:46:35;;;;;;;4.67;1.43;;;7.60;99.90;;;;;;4987750;28;20236;-69
2021/12/20 12:49:36;;;;;;;2.07;1.07;;;7.60;99.90;;;;;;4986980;28;20682;-70
2021/12/20 12:52:18;;;;;;;6.50;1.23;;;7.70;99.90;;;;;;4969963;28;20227;-68
2021/12/20 12:55:13;;;;;;;6.03;0.90;;;7.70;99.90;;;;;;5000420;28;21498;-70
2021/12/20 12:57:42;;;;;;;5.20;1.13;;;7.60;99.90;;;;;;4986867;28;20578;-72
2021/12/20 13:00:23;;;;;;;2.90;1.10;;;7.60;99.90;;;;;;4983688;28;20303;-72
2021/12/20 13:02:54;;;;;;;3.10;0.80;;;7.70;99.90;;;;;;4984692;28;20304;-69
2021/12/20 13:05:23;;;;;;;0.67;0.50;;;7.60;99.90;;;;;;4986947;28;20236;-68
2021/12/20 13:08:02;;;;;;;2.40;0.87;;;7.60;99.90;;;;;;4986768;28;20304;-71
2021/12/20 13:10:40;;;;;;;3.67;0.90;;;7.50;99.90;;;;;;4987361;28;20223;-69
2021/12/20 13:13:28;;;;;;;3.67;0.77;;;7.40;99.90;;;;;;4986338;28;20234;-69
2021/12/20 13:16:01;;;;;;;2.27;0.90;;;7.40;99.90;;;;;;4985817;28;21539;-71
2021/12/20 13:18:32;;;;;;;1.30;0.80;;;7.40;99.90;;;;;;4986444;28;20515;-73
2021/12/20 13:21:04;;;;;;;0.80;0.70;;;7.30;99.90;;;;;;4984595;28;20201;-73
2021/12/20 13:23:34;;;;;;;1.80;0.73;;;7.30;99.90;;;;;;5000027;28;20458;-70
2021/12/20 13:26:13;;;;;;;1.37;0.60;;;7.20;99.90;;;;;;4986940;28;20540;-70
2021/12/20 13:28:42;;;;;;;4.83;0.90;;;7.30;99.90;;;;;;4985724;28;20209;-72
2021/12/20 13:31:13;;;;;;;1.30;0.70;;;7.20;99.90;;;;;;4985987;28;20193;-73